createdAt,value
2023-04-25T00:01:15.565Z,9.92
2023-04-25T00:03:49.847Z,9.81
2023-04-25T00:06:23.078Z,9.70
2023-04-25T00:08:54.722Z,9.53
2023-04-25T00:11:25.432Z,9.69
2023-04-25T00:13:56.864Z,9.71
2023-04-25T00:16:32.323Z,9.56
2023-04-25T00:19:05.195Z,9.60
2023-04-25T00:21:36.676Z,9.37
2023-04-25T00:24:08.351Z,9.41
2023-04-25T00:26:45.397Z,9.35
2023-04-25T00:29:16.219Z,9.26
2023-04-25T00:31:46.873Z,9.11
2023-04-25T00:34:18.307Z,9.03
2023-04-25T00:36:49.700Z,9.07
2023-04-25T00:39:24.042Z,9.05
2023-04-25T00:41:58.780Z,9.13
2023-04-25T00:44:43.177Z,9.26
2023-04-25T00:47:13.533Z,9.23
2023-04-25T00:49:47.780Z,9.01
2023-04-25T00:52:29.553Z,8.64
2023-04-25T00:55:17.833Z,8.41
2023-04-25T00:58:04.464Z,8.61
2023-04-25T01:00:41.286Z,8.93
2023-04-25T01:03:18.778Z,8.87
2023-04-25T01:06:00.234Z,8.76
2023-04-25T01:08:34.043Z,8.30
2023-04-25T01:11:08.037Z,8.28
2023-04-25T01:13:38.542Z,8.31
2023-04-25T01:16:12.456Z,8.10
2023-04-25T01:18:52.953Z,7.96
2023-04-25T01:21:21.898Z,7.97
2023-04-25T01:23:52.346Z,7.73
2023-04-25T01:26:23.831Z,7.65
2023-04-25T01:28:54.843Z,7.45
2023-04-25T01:31:23.552Z,7.43
2023-04-25T01:34:04.123Z,7.78
2023-04-25T01:36:36.040Z,7.70
2023-04-25T01:39:19.344Z,7.60
2023-04-25T01:41:51.887Z,7.77
2023-04-25T01:44:20.765Z,7.94
2023-04-25T01:46:53.884Z,8.00
2023-04-25T01:49:38.979Z,7.95
2023-04-25T01:52:10.774Z,8.14
2023-04-25T01:54:48.033Z,8.21
2023-04-25T01:57:20.249Z,8.29
2023-04-25T01:59:57.192Z,8.30
2023-04-25T02:02:53.759Z,8.29
2023-04-25T02:05:32.425Z,8.30
2023-04-25T02:08:06.039Z,8.37
2023-04-25T02:10:43.810Z,8.37
2023-04-25T02:13:33.981Z,8.33
2023-04-25T02:16:20.185Z,8.48
2023-04-25T02:18:56.980Z,8.50
2023-04-25T02:21:27.350Z,8.52
2023-04-25T02:26:44.604Z,8.43
2023-04-25T02:29:32.981Z,8.68
2023-04-25T02:32:06.722Z,8.72
2023-04-25T02:37:20.120Z,8.65
2023-04-25T02:39:50.654Z,8.70
2023-04-25T02:42:21.707Z,8.77
2023-04-25T02:44:55.179Z,8.68
2023-04-25T02:47:32.664Z,8.85
2023-04-25T02:50:15.396Z,8.91
2023-04-25T02:52:50.413Z,8.94
2023-04-25T02:55:36.871Z,8.96
2023-04-25T02:58:11.863Z,9.00
2023-04-25T03:00:55.798Z,8.97
2023-04-25T03:03:27.832Z,9.01
2023-04-25T03:06:00.053Z,8.96
2023-04-25T03:08:48.156Z,8.76
2023-04-25T03:11:23.977Z,8.92
2023-04-25T03:13:53.435Z,9.00
2023-04-25T03:16:31.181Z,8.94
2023-04-25T03:19:08.989Z,8.84
2023-04-25T03:21:38.234Z,8.76
2023-04-25T03:26:54.783Z,8.81
2023-04-25T03:29:29.868Z,8.96
2023-04-25T03:32:06.642Z,9.08
2023-04-25T03:34:36.746Z,9.06
2023-04-25T03:37:07.107Z,9.18
2023-04-25T03:39:47.078Z,9.13
2023-04-25T03:42:17.906Z,9.10
2023-04-25T03:44:58.585Z,9.03
2023-04-25T03:47:29.889Z,8.93
2023-04-25T03:50:06.633Z,9.00
2023-04-25T03:52:35.378Z,8.88
2023-04-25T03:55:21.848Z,8.90
2023-04-25T03:57:52.232Z,9.00
2023-04-25T04:00:27.550Z,8.96
2023-04-25T04:02:59.006Z,9.04
2023-04-25T04:05:31.285Z,8.90
2023-04-25T04:08:02.299Z,9.04
2023-04-25T04:10:35.832Z,8.92
2023-04-25T04:13:12.059Z,8.86
2023-04-25T04:15:55.659Z,8.86
2023-04-25T04:18:29.207Z,8.88
2023-04-25T04:21:05.463Z,8.81
2023-04-25T04:23:44.561Z,8.75
2023-04-25T04:26:33.997Z,8.90
2023-04-25T04:29:19.893Z,8.90
2023-04-25T04:32:02.087Z,8.96
2023-04-25T04:34:38.820Z,8.97
2023-04-25T04:37:08.191Z,8.91
2023-04-25T04:39:41.726Z,8.99
2023-04-25T04:42:26.924Z,8.91
2023-04-25T04:45:40.453Z,9.12
2023-04-25T04:48:19.681Z,9.06
2023-04-25T04:51:18.549Z,9.13
2023-04-25T04:53:52.784Z,9.10
2023-04-25T04:56:44.458Z,9.20
2023-04-25T04:59:33.631Z,9.15
2023-04-25T05:02:34.829Z,9.23
2023-04-25T05:05:23.339Z,9.21
2023-04-25T05:08:31.051Z,9.16
2023-04-25T05:11:24.996Z,9.09
2023-04-25T05:14:22.596Z,9.22
2023-04-25T05:17:12.106Z,9.32
2023-04-25T05:20:22.625Z,9.23
2023-04-25T05:23:11.144Z,9.29
2023-04-25T05:26:17.874Z,9.36
2023-04-25T05:28:56.671Z,9.42
2023-04-25T05:31:50.177Z,9.58
2023-04-25T05:34:26.374Z,9.73
2023-04-25T05:37:15.468Z,9.84
2023-04-25T05:39:57.666Z,9.93
2023-04-25T05:42:40.560Z,9.94
2023-04-25T05:45:49.909Z,9.89
2023-04-25T05:48:48.548Z,10.03
2023-04-25T05:51:40.883Z,10.02
2023-04-25T05:54:30.681Z,10.10
2023-04-25T05:57:06.135Z,10.15
2023-04-25T05:59:37.189Z,10.10
2023-04-25T06:02:09.577Z,10.12
2023-04-25T06:04:43.221Z,9.78
2023-04-25T06:07:12.579Z,9.98
2023-04-25T06:09:52.575Z,10.11
2023-04-25T06:12:26.548Z,10.15
2023-04-25T06:14:57.626Z,10.18
2023-04-25T06:17:28.931Z,10.04
2023-04-25T06:20:01.607Z,10.13
2023-04-25T06:22:33.936Z,10.20
2023-04-25T06:25:06.084Z,10.04
2023-04-25T06:30:22.459Z,10.16
2023-04-25T06:33:03.553Z,10.26
2023-04-25T06:35:42.197Z,10.24
2023-04-25T06:38:15.956Z,10.14
2023-04-25T06:41:08.926Z,10.07
2023-04-25T06:43:41.676Z,10.37
2023-04-25T06:46:34.754Z,10.28
2023-04-25T06:49:06.727Z,10.47
2023-04-25T06:51:41.218Z,10.72
2023-04-25T06:54:16.382Z,10.80
2023-04-25T06:57:01.637Z,10.98
2023-04-25T07:02:18.932Z,11.28
2023-04-25T07:04:51.309Z,11.37
2023-04-25T07:07:27.148Z,11.58
2023-04-25T07:10:10.608Z,11.70
2023-04-25T07:12:40.946Z,11.63
2023-04-25T07:15:12.934Z,11.61
2023-04-25T07:17:47.315Z,11.91
2023-04-25T07:23:03.288Z,11.76
2023-04-25T07:25:36.127Z,11.96
2023-04-25T07:28:13.796Z,12.09
2023-04-25T07:30:56.228Z,12.13
2023-04-25T07:33:37.034Z,12.32
2023-04-25T07:36:07.750Z,12.13
2023-04-25T07:38:36.427Z,12.11
2023-04-25T07:41:06.944Z,11.64
2023-04-25T07:43:38.435Z,11.99
2023-04-25T07:46:20.498Z,12.19
2023-04-25T07:49:00.079Z,12.00
2023-04-25T07:51:46.432Z,12.10
2023-04-25T07:57:15.488Z,12.24
2023-04-25T07:59:57.200Z,12.43
2023-04-25T08:02:31.972Z,12.61
2023-04-25T08:05:12.079Z,12.80
2023-04-25T08:07:46.111Z,12.43
2023-04-25T08:10:20.444Z,12.86
2023-04-25T08:13:04.046Z,12.93
2023-04-25T08:15:50.234Z,13.01
2023-04-25T08:18:21.353Z,12.92
2023-04-25T08:20:53.961Z,13.08
2023-04-25T08:23:24.692Z,12.75
2023-04-25T08:26:31.646Z,12.99
2023-04-25T08:29:08.148Z,13.32
2023-04-25T08:31:46.682Z,13.72
2023-04-25T08:34:16.751Z,13.71
2023-04-25T08:36:51.875Z,13.39
2023-04-25T08:39:45.628Z,13.66
2023-04-25T08:42:45.720Z,13.64
2023-04-25T08:45:18.814Z,14.09
2023-04-25T08:47:53.248Z,14.32
2023-04-25T08:50:27.475Z,14.37
2023-04-25T08:53:16.832Z,14.63
2023-04-25T08:55:47.111Z,14.96
2023-04-25T08:58:22.366Z,14.43
2023-04-25T09:00:54.789Z,14.49
2023-04-25T09:03:29.297Z,14.06
2023-04-25T09:06:07.806Z,14.06
2023-04-25T09:08:57.228Z,14.43
2023-04-25T09:11:26.547Z,14.36
2023-04-25T09:14:28.801Z,14.21
2023-04-25T09:17:16.779Z,14.52
2023-04-25T09:20:13.576Z,14.70
2023-04-25T09:22:46.295Z,14.42
2023-04-25T09:25:26.375Z,14.24
2023-04-25T09:27:58.562Z,14.56
2023-04-25T09:30:46.717Z,14.52
2023-04-25T09:33:54.645Z,14.71
2023-04-25T09:36:29.253Z,14.95
2023-04-25T09:39:34.175Z,14.80
2023-04-25T09:42:19.859Z,14.66
2023-04-25T09:44:51.911Z,14.76
2023-04-25T09:47:23.069Z,15.08
2023-04-25T09:49:54.834Z,14.94
2023-04-25T09:52:26.223Z,15.04
2023-04-25T09:55:25.444Z,14.38
2023-04-25T09:58:07.293Z,14.65
2023-04-25T10:00:41.478Z,14.80
2023-04-25T10:03:28.271Z,14.92
2023-04-25T10:06:24.823Z,14.94
2023-04-25T10:09:08.364Z,15.01
2023-04-25T10:11:50.270Z,15.07
2023-04-25T10:14:26.967Z,15.15
2023-04-25T10:16:59.014Z,15.02
2023-04-25T10:19:44.239Z,14.92
2023-04-25T10:22:36.488Z,14.72
2023-04-25T10:25:15.577Z,14.67
2023-04-25T10:27:45.808Z,14.42
2023-04-25T10:30:28.795Z,14.67
2023-04-25T10:33:04.817Z,14.60
2023-04-25T10:35:39.626Z,14.64
2023-04-25T10:38:21.569Z,14.63
2023-04-25T10:41:11.950Z,14.73
2023-04-25T10:43:54.768Z,14.83
2023-04-25T10:46:39.739Z,14.57
2023-04-25T10:49:16.415Z,14.82
2023-04-25T10:51:55.517Z,15.01
2023-04-25T10:54:27.258Z,14.80
2023-04-25T10:57:02.191Z,14.87
2023-04-25T10:59:32.967Z,14.81
2023-04-25T11:02:03.714Z,14.80
2023-04-25T11:04:44.746Z,14.96
2023-04-25T11:07:36.684Z,14.80
2023-04-25T11:10:22.620Z,14.75
2023-04-25T11:12:57.122Z,15.01
2023-04-25T11:15:25.722Z,15.21
2023-04-25T11:18:26.837Z,15.18
2023-04-25T11:20:58.418Z,15.68
2023-04-25T11:23:39.849Z,15.71
2023-04-25T11:26:11.940Z,15.50
2023-04-25T11:28:42.674Z,15.42
2023-04-25T11:31:12.182Z,15.64
2023-04-25T11:33:51.052Z,15.82
2023-04-25T11:36:22.741Z,15.53
2023-04-25T11:39:03.458Z,15.56
2023-04-25T11:41:42.891Z,15.74
2023-04-25T11:44:23.776Z,15.30
2023-04-25T11:46:54.728Z,15.20
2023-04-25T11:49:28.837Z,14.92
2023-04-25T11:51:59.743Z,15.15
2023-04-25T11:54:33.450Z,15.16
2023-04-25T11:57:06.432Z,15.13
2023-04-25T11:59:41.021Z,15.04
2023-04-25T12:02:15.827Z,14.86
2023-04-25T12:04:44.860Z,14.45
2023-04-25T12:07:33.698Z,14.81
2023-04-25T12:10:23.722Z,14.67
2023-04-25T12:12:58.645Z,14.77
2023-04-25T12:15:30.221Z,14.88
2023-04-25T12:18:00.857Z,14.88
2023-04-25T12:20:30.086Z,14.67
2023-04-25T12:23:01.382Z,14.73
2023-04-25T12:25:47.025Z,14.72
2023-04-25T12:28:24.645Z,14.80
2023-04-25T12:31:18.516Z,14.71
2023-04-25T12:33:49.481Z,14.77
2023-04-25T12:36:28.532Z,14.74
2023-04-25T12:39:07.586Z,14.88
2023-04-25T12:41:47.859Z,14.67
2023-04-25T12:44:21.596Z,14.69
2023-04-25T12:46:53.453Z,14.69
2023-04-25T12:49:27.516Z,14.80
2023-04-25T12:51:57.786Z,14.64
2023-04-25T12:54:27.918Z,14.86
2023-04-25T12:59:42.151Z,14.68
2023-04-25T13:02:13.005Z,14.67
2023-04-25T13:04:46.896Z,14.67
2023-04-25T13:07:17.934Z,14.73
2023-04-25T13:09:51.952Z,14.54
2023-04-25T13:12:37.237Z,14.71
2023-04-25T13:15:11.229Z,14.69
2023-04-25T13:17:48.134Z,14.82
2023-04-25T13:20:23.187Z,14.81
2023-04-25T13:23:09.194Z,14.83
2023-04-25T13:25:39.719Z,14.70
2023-04-25T13:28:09.212Z,14.87
2023-04-25T13:30:40.182Z,14.90
2023-04-25T13:33:17.426Z,14.88
2023-04-25T13:35:48.585Z,14.97
2023-04-25T13:38:19.725Z,14.94
2023-04-25T13:40:50.590Z,14.94
2023-04-25T13:43:32.522Z,14.99
2023-04-25T13:46:04.665Z,14.91
2023-04-25T13:48:52.754Z,15.09
2023-04-25T13:51:25.012Z,15.08
2023-04-25T13:53:53.620Z,14.97
2023-04-25T13:56:22.582Z,14.85
2023-04-25T13:58:56.791Z,14.81
2023-04-25T14:01:25.072Z,14.97
2023-04-25T14:03:58.046Z,15.11
2023-04-25T14:06:32.169Z,14.93
2023-04-25T14:09:14.573Z,14.95
2023-04-25T14:11:45.291Z,14.52
2023-04-25T14:14:17.183Z,14.88
2023-04-25T14:16:48.212Z,14.86
2023-04-25T14:19:28.192Z,15.03
2023-04-25T14:22:13.678Z,14.97
2023-04-25T14:24:45.812Z,14.80
2023-04-25T14:27:17.253Z,14.92
2023-04-25T14:29:47.896Z,15.01
2023-04-25T14:32:21.649Z,14.91
2023-04-25T14:34:52.056Z,14.87
2023-04-25T14:37:23.975Z,14.76
2023-04-25T14:39:53.498Z,14.64
2023-04-25T14:42:25.353Z,14.72
2023-04-25T14:45:02.590Z,14.92
2023-04-25T14:47:33.389Z,15.03
2023-04-25T14:50:21.635Z,15.17
2023-04-25T14:52:53.824Z,15.47
2023-04-25T14:58:12.681Z,15.74
2023-04-25T15:00:49.195Z,15.53
2023-04-25T15:03:26.863Z,15.48
2023-04-25T15:05:59.995Z,15.00
2023-04-25T15:08:28.762Z,15.14
2023-04-25T15:10:59.161Z,15.01
2023-04-25T15:13:39.817Z,14.79
2023-04-25T15:16:13.222Z,14.71
2023-04-25T15:18:48.654Z,14.87
2023-04-25T15:21:26.950Z,14.86
2023-04-25T15:24:03.410Z,14.97
2023-04-25T15:26:47.850Z,15.01
2023-04-25T15:29:18.994Z,15.01
2023-04-25T15:31:51.921Z,15.05
2023-04-25T15:34:25.488Z,14.98
2023-04-25T15:36:59.991Z,15.01
2023-04-25T15:39:33.362Z,15.11
2023-04-25T15:44:49.270Z,15.25
2023-04-25T15:50:07.815Z,15.25
2023-04-25T15:52:39.415Z,15.85
2023-04-25T15:55:18.382Z,15.87
2023-04-25T15:57:49.137Z,16.06
2023-04-25T16:00:30.425Z,16.87
2023-04-25T16:03:01.605Z,16.73
2023-04-25T16:05:31.167Z,16.16
2023-04-25T16:08:01.830Z,16.51
2023-04-25T16:10:39.267Z,16.74
2023-04-25T16:13:11.252Z,16.91
2023-04-25T16:15:45.405Z,17.10
2023-04-25T16:18:13.908Z,16.79
2023-04-25T16:20:49.022Z,16.57
2023-04-25T16:23:25.171Z,16.31
2023-04-25T16:25:58.595Z,16.23
2023-04-25T16:28:39.282Z,16.37
2023-04-25T16:31:20.044Z,16.73
2023-04-25T16:33:58.837Z,16.52
2023-04-25T16:36:35.069Z,16.32
2023-04-25T16:39:09.745Z,16.19
2023-04-25T16:41:38.755Z,16.18
2023-04-25T16:44:09.268Z,16.10
2023-04-25T16:46:39.127Z,16.03
2023-04-25T16:49:12.247Z,16.10
2023-04-25T16:51:45.628Z,15.90
2023-04-25T16:54:24.590Z,15.87
2023-04-25T16:57:00.935Z,15.35
2023-04-25T16:59:45.038Z,15.42
2023-04-25T17:02:20.630Z,15.41
2023-04-25T17:04:51.093Z,15.35
2023-04-25T17:07:26.933Z,15.15
2023-04-25T17:10:01.423Z,15.26
2023-04-25T17:12:36.566Z,15.23
2023-04-25T17:15:22.182Z,15.16
2023-04-25T17:17:54.968Z,14.83
2023-04-25T17:20:26.538Z,14.82
2023-04-25T17:22:59.484Z,14.69
2023-04-25T17:25:27.482Z,14.70
2023-04-25T17:28:01.710Z,14.54
2023-04-25T17:30:34.447Z,14.47
2023-04-25T17:33:10.246Z,14.30
2023-04-25T17:35:38.757Z,14.25
2023-04-25T17:38:10.769Z,14.05
2023-04-25T17:40:43.450Z,13.83
2023-04-25T17:43:14.441Z,13.74
2023-04-25T17:45:48.435Z,13.48
2023-04-25T17:48:24.007Z,13.07
2023-04-25T17:50:56.501Z,12.95
2023-04-25T17:53:35.698Z,12.87
2023-04-25T17:56:26.716Z,12.77
2023-04-25T17:58:59.220Z,12.52
2023-04-25T18:01:30.455Z,12.11
2023-04-25T18:04:04.179Z,12.01
2023-04-25T18:06:41.537Z,11.87
2023-04-25T18:09:23.820Z,11.99
2023-04-25T18:12:02.402Z,11.40
2023-04-25T18:14:32.709Z,11.66
2023-04-25T18:17:04.231Z,11.62
2023-04-25T18:19:44.221Z,11.75
2023-04-25T18:22:22.090Z,11.72
2023-04-25T18:25:01.558Z,11.65
2023-04-25T18:27:31.903Z,11.45
2023-04-25T18:30:05.217Z,11.38
2023-04-25T18:32:34.450Z,11.54
2023-04-25T18:35:22.591Z,11.57
2023-04-25T18:37:54.262Z,11.60
2023-04-25T18:40:26.876Z,11.39
2023-04-25T18:42:57.413Z,11.18
2023-04-25T18:45:27.552Z,10.84
2023-04-25T18:48:03.746Z,10.53
2023-04-25T18:50:33.678Z,10.52
2023-04-25T18:53:07.484Z,10.25
2023-04-25T18:55:37.567Z,9.99
2023-04-25T18:58:11.410Z,9.77
2023-04-25T19:00:42.665Z,9.59
2023-04-25T19:03:23.064Z,9.52
2023-04-25T19:05:54.412Z,9.46
2023-04-25T19:08:27.103Z,9.54
2023-04-25T19:11:07.582Z,9.87
2023-04-25T19:13:51.266Z,10.16
2023-04-25T19:16:24.268Z,9.78
2023-04-25T19:18:54.060Z,9.23
2023-04-25T19:21:25.432Z,9.16
2023-04-25T19:23:56.916Z,9.43
2023-04-25T19:26:33.115Z,9.67
2023-04-25T19:29:22.645Z,9.78
2023-04-25T19:31:52.464Z,9.48
2023-04-25T19:34:28.458Z,9.55
2023-04-25T19:37:04.444Z,9.61
2023-04-25T19:42:21.532Z,9.35
2023-04-25T19:44:49.857Z,9.18
2023-04-25T19:47:20.171Z,9.38
2023-04-25T19:50:02.333Z,9.40
2023-04-25T19:52:32.664Z,9.26
2023-04-25T19:55:10.566Z,9.06
2023-04-25T19:57:41.704Z,9.25
2023-04-25T20:00:26.075Z,9.23
2023-04-25T20:02:57.615Z,9.30
2023-04-25T20:05:27.157Z,9.35
2023-04-25T20:08:03.504Z,9.32
2023-04-25T20:10:32.266Z,8.78
2023-04-25T20:13:06.631Z,8.61
2023-04-25T20:15:34.909Z,8.99
2023-04-25T20:18:05.483Z,9.12
2023-04-25T20:20:36.866Z,9.07
2023-04-25T20:23:10.630Z,8.75
2023-04-25T20:25:46.267Z,9.13
2023-04-25T20:31:10.613Z,9.25
2023-04-25T20:33:45.728Z,9.26
2023-04-25T20:36:19.316Z,8.98
2023-04-25T20:38:54.970Z,8.90
2023-04-25T20:41:37.395Z,8.87
2023-04-25T20:44:16.502Z,8.78
2023-04-25T20:46:51.175Z,8.52
2023-04-25T20:49:20.205Z,8.39
2023-04-25T20:51:55.340Z,8.42
2023-04-25T20:54:27.007Z,8.37
2023-04-25T20:56:57.861Z,8.44
2023-04-25T20:59:28.800Z,8.10
2023-04-25T21:02:02.525Z,8.20
2023-04-25T21:04:39.684Z,8.08
2023-04-25T21:07:15.318Z,8.17
2023-04-25T21:09:50.704Z,8.06
2023-04-25T21:12:21.475Z,8.19
2023-04-25T21:14:53.057Z,8.16
2023-04-25T21:17:23.490Z,8.09
2023-04-25T21:19:59.717Z,8.05
2023-04-25T21:22:31.478Z,8.11
2023-04-25T21:25:09.608Z,7.82
2023-04-25T21:27:44.595Z,7.82
2023-04-25T21:30:17.175Z,7.68
2023-04-25T21:32:54.332Z,7.31
2023-04-25T21:35:25.015Z,7.28
2023-04-25T21:37:55.391Z,7.38
2023-04-25T21:40:23.321Z,7.26
2023-04-25T21:42:59.349Z,7.07
2023-04-25T21:45:32.094Z,7.42
2023-04-25T21:48:04.779Z,7.35
2023-04-25T21:50:34.109Z,7.16
2023-04-25T21:53:02.908Z,7.10
2023-04-25T21:55:45.317Z,7.18
2023-04-25T21:58:19.531Z,7.07
2023-04-25T22:00:49.537Z,6.76
2023-04-25T22:03:26.628Z,6.63
2023-04-25T22:06:00.874Z,6.35
2023-04-25T22:08:32.536Z,6.70
2023-04-25T22:11:10.286Z,6.48
2023-04-25T22:13:40.257Z,6.83
2023-04-25T22:16:24.485Z,6.54
2023-04-25T22:18:58.470Z,6.41
2023-04-25T22:21:35.837Z,6.52
2023-04-25T22:24:15.724Z,6.57
2023-04-25T22:27:00.735Z,6.74
2023-04-25T22:29:34.874Z,6.79
2023-04-25T22:32:10.653Z,6.89
2023-04-25T22:34:42.650Z,6.86
2023-04-25T22:37:17.707Z,6.75
2023-04-25T22:39:50.853Z,6.52
2023-04-25T22:42:25.238Z,6.49
2023-04-25T22:44:59.457Z,6.37
2023-04-25T22:47:33.585Z,6.32
2023-04-25T22:50:08.474Z,6.33
2023-04-25T22:52:48.162Z,6.19
2023-04-25T22:55:18.583Z,5.94
2023-04-25T22:57:48.619Z,5.96
2023-04-25T23:00:30.697Z,6.01
2023-04-25T23:03:04.271Z,6.13
2023-04-25T23:05:35.362Z,6.04
2023-04-25T23:08:09.313Z,6.31
2023-04-25T23:10:43.994Z,6.51
2023-04-25T23:13:19.857Z,6.34
2023-04-25T23:18:37.212Z,6.40
2023-04-25T23:21:16.028Z,6.31
2023-04-25T23:23:46.792Z,6.21
2023-04-25T23:26:16.863Z,6.16
2023-04-25T23:28:50.550Z,5.61
2023-04-25T23:31:20.729Z,5.47
2023-04-25T23:33:58.155Z,5.69
2023-04-25T23:36:31.048Z,5.74
2023-04-25T23:39:02.627Z,5.90
2023-04-25T23:44:20.360Z,5.96
2023-04-25T23:46:52.712Z,5.71
2023-04-25T23:52:12.036Z,6.26
2023-04-25T23:54:45.828Z,5.98
2023-04-25T23:57:18.977Z,5.95
2023-04-25T23:59:49.833Z,5.95
